createdAt,value
2022-11-02T00:01:27.256Z,12.35
2022-11-02T00:03:55.597Z,12.32
2022-11-02T00:06:23.767Z,12.18
2022-11-02T00:08:51.902Z,12.24
2022-11-02T00:11:20.238Z,12.19
2022-11-02T00:13:48.394Z,12.18
2022-11-02T00:16:19.443Z,12.18
2022-11-02T00:18:52.209Z,12.22
2022-11-02T00:21:21.894Z,12.24
2022-11-02T00:23:50.688Z,12.26
2022-11-02T00:26:19.766Z,12.20
2022-11-02T00:28:48.081Z,12.16
2022-11-02T00:31:16.232Z,12.19
2022-11-02T00:33:44.343Z,12.25
2022-11-02T00:36:14.304Z,12.25
2022-11-02T00:38:42.422Z,12.23
2022-11-02T00:41:10.648Z,12.22
2022-11-02T00:43:39.015Z,12.23
2022-11-02T00:46:07.147Z,12.16
2022-11-02T00:48:35.313Z,12.15
2022-11-02T00:51:03.423Z,12.03
2022-11-02T00:53:32.932Z,12.11
2022-11-02T00:56:01.084Z,12.06
2022-11-02T00:58:29.304Z,12.06
2022-11-02T01:00:57.997Z,11.97
2022-11-02T01:03:26.314Z,11.96
2022-11-02T01:05:54.393Z,11.98
2022-11-02T01:08:22.385Z,12.00
2022-11-02T01:10:51.980Z,11.90
2022-11-02T01:13:20.141Z,11.90
2022-11-02T01:15:48.377Z,11.85
2022-11-02T01:18:16.662Z,11.85
2022-11-02T01:20:44.753Z,11.81
2022-11-02T01:23:12.846Z,11.85
2022-11-02T01:25:47.021Z,11.78
2022-11-02T01:28:16.442Z,11.72
2022-11-02T01:30:45.007Z,11.67
2022-11-02T01:33:13.547Z,11.42
2022-11-02T01:35:41.707Z,11.61
2022-11-02T01:38:09.855Z,11.59
2022-11-02T01:40:39.313Z,11.58
2022-11-02T01:43:26.701Z,11.55
2022-11-02T01:46:01.511Z,11.48
2022-11-02T01:48:34.654Z,11.49
2022-11-02T01:51:05.967Z,11.46
2022-11-02T01:53:36.125Z,11.46
2022-11-02T01:56:05.676Z,11.32
2022-11-02T01:58:35.546Z,11.29
2022-11-02T02:01:04.176Z,11.26
2022-11-02T02:03:34.003Z,11.26
2022-11-02T02:06:06.609Z,11.24
2022-11-02T02:08:39.147Z,11.12
2022-11-02T02:11:25.745Z,11.21
2022-11-02T02:13:56.904Z,11.11
2022-11-02T02:16:39.128Z,11.10
2022-11-02T02:19:18.048Z,11.04
2022-11-02T02:21:58.747Z,10.97
2022-11-02T02:24:45.476Z,10.88
2022-11-02T02:27:18.400Z,10.87
2022-11-02T02:29:56.663Z,10.87
2022-11-02T02:32:31.440Z,10.81
2022-11-02T02:35:04.100Z,10.89
2022-11-02T02:37:39.679Z,10.86
2022-11-02T02:40:12.592Z,10.72
2022-11-02T02:42:45.640Z,10.83
2022-11-02T02:45:20.705Z,10.85
2022-11-02T02:47:52.799Z,10.89
2022-11-02T02:50:26.005Z,10.90
2022-11-02T02:52:56.038Z,10.89
2022-11-02T02:55:29.253Z,10.91
2022-11-02T02:57:59.248Z,10.92
2022-11-02T03:00:29.856Z,10.93
2022-11-02T03:03:02.420Z,10.96
2022-11-02T03:05:34.260Z,10.97
2022-11-02T03:08:07.003Z,10.99
2022-11-02T03:10:41.844Z,10.97
2022-11-02T03:13:32.680Z,10.88
2022-11-02T03:16:06.681Z,10.99
2022-11-02T03:18:48.066Z,11.00
2022-11-02T03:21:26.892Z,10.83
2022-11-02T03:24:02.146Z,10.96
2022-11-02T03:26:34.224Z,10.63
2022-11-02T03:29:07.307Z,10.93
2022-11-02T03:31:42.054Z,10.87
2022-11-02T03:34:25.769Z,10.80
2022-11-02T03:37:00.577Z,10.57
2022-11-02T03:39:33.992Z,10.47
2022-11-02T03:42:05.431Z,10.26
2022-11-02T03:44:39.072Z,10.37
2022-11-02T03:47:12.836Z,10.28
2022-11-02T03:49:43.427Z,10.62
2022-11-02T03:52:18.032Z,10.68
2022-11-02T03:54:53.733Z,10.85
2022-11-02T03:57:26.666Z,10.80
2022-11-02T03:59:54.833Z,10.82
2022-11-02T04:02:24.671Z,10.75
2022-11-02T04:04:54.069Z,10.60
2022-11-02T04:07:29.000Z,10.56
2022-11-02T04:09:57.231Z,10.72
2022-11-02T04:12:42.311Z,10.55
2022-11-02T04:15:11.691Z,10.42
2022-11-02T04:17:58.858Z,10.42
2022-11-02T04:20:27.187Z,10.32
2022-11-02T04:23:12.801Z,10.52
2022-11-02T04:25:41.476Z,10.62
2022-11-02T04:28:10.760Z,10.68
2022-11-02T04:30:38.935Z,10.32
2022-11-02T04:33:25.845Z,10.13
2022-11-02T04:35:53.981Z,9.93
2022-11-02T04:38:39.749Z,9.87
2022-11-02T04:41:25.557Z,9.88
2022-11-02T04:43:54.007Z,9.75
2022-11-02T04:46:23.415Z,9.98
2022-11-02T04:48:53.128Z,10.07
2022-11-02T04:51:21.940Z,10.29
2022-11-02T04:53:50.614Z,10.43
2022-11-02T04:56:19.126Z,10.43
2022-11-02T04:58:50.896Z,10.52
2022-11-02T05:01:20.869Z,10.51
2022-11-02T05:03:50.030Z,10.51
2022-11-02T05:06:20.957Z,10.56
2022-11-02T05:08:49.383Z,10.51
2022-11-02T05:11:17.535Z,10.59
2022-11-02T05:13:45.831Z,10.70
2022-11-02T05:16:16.398Z,10.61
2022-11-02T05:18:45.533Z,10.75
2022-11-02T05:21:14.352Z,10.88
2022-11-02T05:23:43.888Z,10.92
2022-11-02T05:26:13.652Z,10.97
2022-11-02T05:28:42.393Z,10.99
2022-11-02T05:31:10.471Z,10.82
2022-11-02T05:33:38.566Z,11.06
2022-11-02T05:36:06.976Z,11.05
2022-11-02T05:38:35.081Z,11.12
2022-11-02T05:41:04.847Z,11.16
2022-11-02T05:43:32.864Z,11.21
2022-11-02T05:46:02.678Z,11.33
2022-11-02T05:48:33.896Z,11.38
2022-11-02T05:51:03.708Z,11.38
2022-11-02T05:53:34.131Z,11.52
2022-11-02T05:56:05.318Z,11.52
2022-11-02T05:58:33.738Z,11.60
2022-11-02T06:01:02.780Z,11.69
2022-11-02T06:03:31.769Z,11.59
2022-11-02T06:06:00.567Z,11.49
2022-11-02T06:08:29.311Z,11.56
2022-11-02T06:10:57.572Z,11.69
2022-11-02T06:13:28.310Z,11.73
2022-11-02T06:15:59.917Z,11.92
2022-11-02T06:18:27.934Z,12.15
2022-11-02T06:20:58.286Z,12.31
2022-11-02T06:23:26.482Z,12.62
2022-11-02T06:25:55.394Z,12.86
2022-11-02T06:28:24.445Z,13.18
2022-11-02T06:30:54.224Z,13.35
2022-11-02T06:33:23.068Z,13.49
2022-11-02T06:35:53.134Z,13.72
2022-11-02T06:38:21.350Z,14.08
2022-11-02T06:40:56.816Z,14.20
2022-11-02T06:43:25.543Z,14.33
2022-11-02T06:45:57.457Z,14.45
2022-11-02T06:48:31.302Z,14.63
2022-11-02T06:51:03.048Z,14.89
2022-11-02T06:53:31.129Z,15.01
2022-11-02T06:56:00.965Z,15.13
2022-11-02T06:58:29.553Z,15.21
2022-11-02T07:01:03.312Z,15.55
2022-11-02T07:03:32.315Z,15.61
2022-11-02T07:06:01.078Z,15.83
2022-11-02T07:08:29.708Z,15.95
2022-11-02T07:10:58.982Z,16.06
2022-11-02T07:13:27.158Z,16.20
2022-11-02T07:15:56.092Z,16.24
2022-11-02T07:18:26.076Z,16.30
2022-11-02T07:20:54.737Z,16.38
2022-11-02T07:23:24.440Z,16.58
2022-11-02T07:25:53.202Z,16.81
2022-11-02T07:28:21.392Z,16.90
2022-11-02T07:30:49.887Z,17.08
2022-11-02T07:33:18.164Z,17.25
2022-11-02T07:35:47.791Z,17.34
2022-11-02T07:38:16.097Z,17.43
2022-11-02T07:40:44.221Z,17.51
2022-11-02T07:43:12.198Z,17.55
2022-11-02T07:45:40.121Z,17.64
2022-11-02T07:48:08.693Z,17.77
2022-11-02T07:50:36.672Z,17.66
2022-11-02T07:53:06.838Z,17.92
2022-11-02T07:55:35.348Z,18.03
2022-11-02T07:58:05.010Z,18.17
2022-11-02T08:00:35.005Z,18.13
2022-11-02T08:03:04.499Z,18.36
2022-11-02T08:05:34.868Z,18.54
2022-11-02T08:08:06.011Z,18.63
2022-11-02T08:10:39.085Z,18.83
2022-11-02T08:13:08.033Z,18.82
2022-11-02T08:15:36.001Z,18.97
2022-11-02T08:18:06.262Z,18.86
2022-11-02T08:20:36.443Z,19.07
2022-11-02T08:23:07.827Z,19.15
2022-11-02T08:25:36.650Z,19.16
2022-11-02T08:28:05.585Z,19.27
2022-11-02T08:30:34.031Z,19.31
2022-11-02T08:33:06.577Z,19.48
2022-11-02T08:35:37.769Z,19.60
2022-11-02T08:38:08.850Z,19.61
2022-11-02T08:40:37.741Z,19.62
2022-11-02T08:43:07.417Z,19.72
2022-11-02T08:46:08.387Z,19.83
2022-11-02T08:48:25.644Z,19.92
2022-11-02T08:50:53.761Z,20.01
2022-11-02T08:53:23.757Z,20.07
2022-11-02T08:55:51.730Z,19.97
2022-11-02T08:58:19.735Z,19.86
2022-11-02T09:00:48.119Z,19.97
2022-11-02T09:03:20.647Z,20.10
2022-11-02T09:05:51.719Z,20.19
2022-11-02T09:10:58.808Z,20.29
2022-11-02T09:13:26.827Z,20.14
2022-11-02T09:15:56.865Z,20.38
2022-11-02T09:18:25.319Z,20.49
2022-11-02T09:20:53.617Z,20.56
2022-11-02T09:23:23.685Z,20.56
2022-11-02T09:25:52.614Z,20.50
2022-11-02T09:28:20.760Z,20.62
2022-11-02T09:30:48.716Z,20.63
2022-11-02T09:33:16.766Z,20.81
2022-11-02T09:35:46.516Z,20.97
2022-11-02T09:38:16.133Z,21.02
2022-11-02T09:40:50.167Z,20.99
2022-11-02T09:43:32.159Z,21.04
2022-11-02T09:46:02.469Z,21.22
2022-11-02T09:48:35.595Z,21.36
2022-11-02T09:51:07.572Z,21.41
2022-11-02T09:53:45.744Z,21.43
2022-11-02T09:56:20.176Z,21.21
2022-11-02T09:58:54.610Z,21.35
2022-11-02T10:01:43.681Z,21.42
2022-11-02T10:04:46.776Z,21.57
2022-11-02T10:07:29.029Z,21.45
2022-11-02T10:10:02.230Z,21.61
2022-11-02T10:12:40.316Z,21.58
2022-11-02T10:15:14.189Z,21.71
2022-11-02T10:17:43.525Z,21.66
2022-11-02T10:20:23.819Z,21.77
2022-11-02T10:22:51.966Z,21.80
2022-11-02T10:25:20.399Z,21.79
2022-11-02T10:27:52.902Z,21.75
2022-11-02T10:30:22.067Z,21.83
2022-11-02T10:32:54.355Z,21.87
2022-11-02T10:35:51.330Z,21.86
2022-11-02T10:38:30.364Z,21.74
2022-11-02T10:41:15.222Z,21.74
2022-11-02T10:44:07.188Z,21.95
2022-11-02T10:46:50.436Z,21.89
2022-11-02T10:49:31.084Z,21.99
2022-11-02T10:51:59.352Z,21.77
2022-11-02T10:54:33.200Z,22.21
2022-11-02T10:57:13.310Z,22.14
2022-11-02T10:59:42.810Z,22.23
2022-11-02T11:02:13.653Z,22.21
2022-11-02T11:04:42.721Z,22.14
2022-11-02T11:07:16.393Z,22.15
2022-11-02T11:09:49.567Z,22.16
2022-11-02T11:12:22.513Z,22.26
2022-11-02T11:20:37.174Z,22.10
2022-11-02T11:23:20.568Z,22.18
2022-11-02T11:25:57.630Z,22.05
2022-11-02T11:28:28.133Z,22.02
2022-11-02T11:31:13.578Z,22.01
2022-11-02T11:33:52.058Z,21.98
2022-11-02T11:36:29.375Z,21.97
2022-11-02T11:39:00.525Z,22.06
2022-11-02T11:41:29.482Z,22.10
2022-11-02T11:43:57.816Z,22.05
2022-11-02T11:46:41.793Z,21.93
2022-11-02T11:49:31.040Z,21.89
2022-11-02T11:52:05.062Z,21.78
2022-11-02T11:54:33.821Z,21.66
2022-11-02T11:57:23.574Z,21.78
2022-11-02T11:59:53.205Z,21.94
2022-11-02T12:02:25.680Z,21.91
2022-11-02T12:05:00.975Z,21.87
2022-11-02T12:07:43.299Z,22.07
2022-11-02T12:10:18.529Z,22.15
2022-11-02T12:13:00.564Z,22.05
2022-11-02T12:15:42.601Z,21.93
2022-11-02T12:18:34.520Z,22.07
2022-11-02T12:21:16.569Z,21.83
2022-11-02T12:24:03.179Z,21.89
2022-11-02T12:26:47.251Z,21.80
2022-11-02T12:29:31.941Z,21.73
2022-11-02T12:32:13.044Z,21.79
2022-11-02T12:35:27.255Z,21.78
2022-11-02T12:38:09.583Z,21.93
2022-11-02T12:40:51.794Z,21.92
2022-11-02T12:43:41.366Z,21.82
2022-11-02T12:46:23.372Z,21.86
2022-11-02T12:49:08.664Z,21.58
2022-11-02T12:51:42.215Z,21.62
2022-11-02T12:54:14.079Z,21.61
2022-11-02T12:56:48.370Z,21.68
2022-11-02T12:59:22.991Z,21.72
2022-11-02T13:01:56.115Z,21.62
2022-11-02T13:04:30.385Z,21.68
2022-11-02T13:07:06.408Z,21.51
2022-11-02T13:09:39.989Z,21.36
2022-11-02T13:12:10.162Z,21.30
2022-11-02T13:14:42.446Z,21.33
2022-11-02T13:17:17.018Z,21.21
2022-11-02T13:19:49.616Z,21.18
2022-11-02T13:22:22.482Z,21.19
2022-11-02T13:24:55.223Z,21.05
2022-11-02T13:27:37.138Z,21.02
2022-11-02T13:30:15.749Z,21.01
2022-11-02T13:32:46.992Z,21.15
2022-11-02T13:35:20.395Z,21.25
2022-11-02T13:37:55.048Z,21.15
2022-11-02T13:40:27.350Z,21.03
2022-11-02T13:43:40.127Z,20.79
2022-11-02T13:46:23.156Z,20.93
2022-11-02T13:48:57.992Z,20.77
2022-11-02T13:51:32.243Z,20.72
2022-11-02T13:54:05.400Z,20.65
2022-11-02T13:56:37.708Z,20.59
2022-11-02T13:59:08.673Z,20.58
2022-11-02T14:01:42.746Z,20.59
2022-11-02T14:04:13.079Z,20.48
2022-11-02T14:06:55.077Z,20.41
2022-11-02T14:09:30.196Z,20.33
2022-11-02T14:12:28.720Z,20.20
2022-11-02T14:15:48.502Z,20.25
2022-11-02T14:18:31.339Z,20.13
2022-11-02T14:21:00.506Z,20.17
2022-11-02T14:23:41.731Z,20.11
2022-11-02T14:29:40.027Z,19.79
2022-11-02T14:32:15.874Z,19.77
2022-11-02T14:35:04.436Z,19.78
2022-11-02T14:37:50.220Z,19.81
2022-11-02T14:40:34.494Z,19.55
2022-11-02T14:43:45.668Z,19.28
2022-11-02T14:46:29.635Z,19.41
2022-11-02T14:48:59.972Z,19.28
2022-11-02T14:51:31.772Z,19.27
2022-11-02T14:54:03.836Z,19.18
2022-11-02T14:56:51.703Z,19.01
2022-11-02T14:59:24.596Z,18.85
2022-11-02T15:01:58.244Z,18.72
2022-11-02T15:04:27.838Z,18.67
2022-11-02T15:06:58.428Z,18.68
2022-11-02T15:09:57.856Z,18.68
2022-11-02T15:12:38.732Z,18.38
2022-11-02T15:15:32.314Z,18.44
2022-11-02T15:18:33.096Z,18.20
2022-11-02T15:21:23.632Z,17.97
2022-11-02T15:23:56.842Z,17.39
2022-11-02T15:26:28.992Z,17.52
2022-11-02T15:29:01.404Z,17.34
2022-11-02T15:31:30.460Z,17.34
2022-11-02T15:34:03.986Z,17.26
2022-11-02T15:36:36.331Z,16.97
2022-11-02T15:39:07.976Z,16.73
2022-11-02T15:41:40.893Z,16.47
2022-11-02T15:44:25.848Z,16.75
2022-11-02T15:47:04.526Z,16.71
2022-11-02T15:49:55.742Z,16.54
2022-11-02T15:52:34.681Z,16.58
2022-11-02T15:55:14.320Z,16.53
2022-11-02T15:57:53.785Z,16.43
2022-11-02T16:00:30.067Z,16.36
2022-11-02T16:03:03.140Z,16.34
2022-11-02T16:05:34.540Z,15.99
2022-11-02T16:08:10.909Z,15.73
2022-11-02T16:10:39.343Z,15.99
2022-11-02T16:13:17.067Z,15.96
2022-11-02T16:15:46.156Z,15.98
2022-11-02T16:18:27.749Z,15.79
2022-11-02T16:21:02.000Z,15.08
2022-11-02T16:23:32.724Z,15.61
2022-11-02T16:26:02.552Z,15.77
2022-11-02T16:28:32.149Z,15.60
2022-11-02T16:31:14.445Z,15.12
2022-11-02T16:33:45.941Z,15.32
2022-11-02T16:36:18.364Z,15.31
2022-11-02T16:38:59.622Z,15.44
2022-11-02T16:41:29.290Z,15.56
2022-11-02T16:43:58.973Z,15.32
2022-11-02T16:46:32.013Z,15.07
2022-11-02T16:49:18.535Z,14.86
2022-11-02T16:51:53.275Z,14.87
2022-11-02T16:54:32.070Z,14.67
2022-11-02T16:57:08.584Z,14.19
2022-11-02T16:59:40.149Z,13.99
2022-11-02T17:02:13.445Z,14.38
2022-11-02T17:04:43.931Z,14.35
2022-11-02T17:07:17.683Z,14.50
2022-11-02T17:09:51.217Z,14.49
2022-11-02T17:12:20.429Z,14.45
2022-11-02T17:14:51.349Z,14.50
2022-11-02T17:17:37.325Z,14.48
2022-11-02T17:20:18.161Z,14.56
2022-11-02T17:22:59.109Z,14.69
2022-11-02T17:25:28.754Z,14.76
2022-11-02T17:27:58.322Z,14.46
2022-11-02T17:30:46.557Z,14.65
2022-11-02T17:33:29.801Z,14.85
2022-11-02T17:36:04.468Z,14.94
2022-11-02T17:38:34.139Z,14.92
2022-11-02T17:41:02.697Z,15.17
2022-11-02T17:43:29.628Z,15.12
2022-11-02T17:45:58.753Z,15.25
2022-11-02T17:48:29.108Z,15.09
2022-11-02T17:50:59.936Z,15.07
2022-11-02T17:53:28.475Z,14.87
2022-11-02T17:55:57.867Z,14.70
2022-11-02T17:58:25.826Z,14.61
2022-11-02T18:00:54.801Z,14.64
2022-11-02T18:03:29.765Z,14.75
2022-11-02T18:06:00.200Z,14.82
2022-11-02T18:08:28.760Z,14.98
2022-11-02T18:10:58.285Z,15.12
2022-11-02T18:13:26.291Z,15.11
2022-11-02T18:15:54.369Z,15.07
2022-11-02T18:18:22.295Z,14.89
2022-11-02T18:20:50.222Z,14.91
2022-11-02T18:23:19.900Z,14.84
2022-11-02T18:25:48.095Z,14.92
2022-11-02T18:28:17.420Z,14.56
2022-11-02T18:30:45.887Z,14.67
2022-11-02T18:33:14.866Z,14.76
2022-11-02T18:35:44.358Z,14.74
2022-11-02T18:38:12.908Z,14.89
2022-11-02T18:40:40.874Z,14.56
2022-11-02T18:43:09.448Z,14.68
2022-11-02T18:45:39.084Z,14.58
2022-11-02T18:48:07.963Z,14.73
2022-11-02T18:50:36.310Z,14.83
2022-11-02T18:53:04.286Z,14.86
2022-11-02T18:55:32.258Z,14.88
2022-11-02T18:58:00.181Z,14.93
2022-11-02T19:00:28.107Z,14.95
2022-11-02T19:02:57.447Z,14.98
2022-11-02T19:05:42.897Z,14.99
2022-11-02T19:08:28.978Z,14.93
2022-11-02T19:10:56.968Z,14.97
2022-11-02T19:13:24.924Z,14.86
2022-11-02T19:15:52.911Z,14.60
2022-11-02T19:18:22.221Z,14.89
2022-11-02T19:20:50.213Z,14.82
2022-11-02T19:23:18.191Z,14.91
2022-11-02T19:25:51.569Z,14.48
2022-11-02T19:28:19.886Z,14.49
2022-11-02T19:30:47.833Z,14.22
2022-11-02T19:33:15.767Z,14.33
2022-11-02T19:35:54.735Z,14.37
2022-11-02T19:38:23.509Z,14.39
2022-11-02T19:41:01.443Z,14.43
2022-11-02T19:43:29.555Z,14.64
2022-11-02T19:46:01.297Z,14.58
2022-11-02T19:48:29.447Z,14.64
2022-11-02T19:51:06.220Z,14.56
2022-11-02T19:53:34.158Z,14.67
2022-11-02T19:56:02.324Z,14.63
2022-11-02T19:58:30.313Z,14.65
2022-11-02T20:00:58.345Z,14.61
2022-11-02T20:03:26.304Z,14.67
2022-11-02T20:05:54.237Z,14.60
2022-11-02T20:08:25.014Z,14.62
2022-11-02T20:10:52.985Z,14.47
2022-11-02T20:13:20.882Z,14.38
2022-11-02T20:15:48.865Z,14.25
2022-11-02T20:18:19.919Z,14.36
2022-11-02T20:20:48.319Z,14.48
2022-11-02T20:23:16.310Z,14.45
2022-11-02T20:25:45.612Z,14.50
2022-11-02T20:28:13.599Z,14.49
2022-11-02T20:30:42.913Z,14.47
2022-11-02T20:33:11.165Z,14.54
2022-11-02T20:35:40.071Z,14.56
2022-11-02T20:38:08.198Z,14.52
2022-11-02T20:40:40.982Z,14.47
2022-11-02T20:43:10.612Z,14.32
2022-11-02T20:45:38.534Z,14.16
2022-11-02T20:48:07.491Z,14.12
2022-11-02T20:50:37.190Z,13.90
2022-11-02T20:53:05.436Z,13.79
2022-11-02T20:55:33.532Z,13.70
2022-11-02T20:58:01.453Z,13.63
2022-11-02T21:00:30.787Z,13.53
2022-11-02T21:02:58.708Z,13.49
2022-11-02T21:05:26.665Z,13.54
2022-11-02T21:07:54.592Z,13.77
2022-11-02T21:10:22.525Z,13.83
2022-11-02T21:13:08.262Z,13.84
2022-11-02T21:15:37.974Z,13.93
2022-11-02T21:18:06.114Z,14.11
2022-11-02T21:20:34.972Z,13.90
2022-11-02T21:23:03.860Z,14.26
2022-11-02T21:25:33.268Z,14.19
2022-11-02T21:28:01.643Z,14.22
2022-11-02T21:30:31.057Z,14.32
2022-11-02T21:33:00.457Z,14.38
2022-11-02T21:35:28.431Z,14.05
2022-11-02T21:37:59.270Z,13.96
2022-11-02T21:40:30.300Z,14.13
2022-11-02T21:42:58.212Z,14.15
2022-11-02T21:45:26.529Z,14.33
2022-11-02T21:47:54.514Z,14.37
2022-11-02T21:50:24.383Z,14.38
2022-11-02T21:52:52.328Z,14.41
2022-11-02T21:55:20.279Z,14.34
2022-11-02T21:57:48.271Z,14.43
2022-11-02T22:00:17.042Z,14.44
2022-11-02T22:02:44.094Z,14.39
2022-11-02T22:05:32.097Z,14.47
2022-11-02T22:08:19.300Z,14.47
2022-11-02T22:10:47.281Z,14.48
2022-11-02T22:13:33.245Z,14.48
2022-11-02T22:16:11.739Z,14.47
2022-11-02T22:18:39.903Z,14.46
2022-11-02T22:21:08.049Z,14.33
2022-11-02T22:23:37.484Z,14.04
2022-11-02T22:26:07.364Z,14.32
2022-11-02T22:28:36.891Z,14.25
2022-11-02T22:31:08.583Z,14.30
2022-11-02T22:33:37.014Z,14.24
2022-11-02T22:36:06.439Z,14.03
2022-11-02T22:38:48.536Z,14.13
2022-11-02T22:41:19.297Z,14.17
2022-11-02T22:43:47.294Z,14.16
2022-11-02T22:46:15.850Z,14.11
2022-11-02T22:48:43.797Z,14.09
2022-11-02T22:51:11.940Z,13.92
2022-11-02T22:53:39.863Z,13.78
2022-11-02T22:56:11.985Z,13.76
2022-11-02T22:58:42.763Z,13.59
2022-11-02T23:01:12.228Z,13.41
2022-11-02T23:03:40.498Z,13.43
2022-11-02T23:06:09.185Z,13.33
2022-11-02T23:08:40.756Z,13.27
2022-11-02T23:11:22.395Z,13.28
2022-11-02T23:13:54.850Z,13.19
2022-11-02T23:16:24.846Z,13.30
2022-11-02T23:19:12.940Z,13.27
2022-11-02T23:21:42.226Z,13.22
2022-11-02T23:24:28.196Z,13.19
2022-11-02T23:26:56.327Z,13.01
2022-11-02T23:29:43.274Z,13.08
2022-11-02T23:32:27.691Z,13.19
2022-11-02T23:35:13.591Z,13.17
2022-11-02T23:37:42.045Z,13.18
2022-11-02T23:40:11.648Z,12.97
2022-11-02T23:42:39.929Z,13.06
2022-11-02T23:45:11.582Z,13.15
2022-11-02T23:47:53.529Z,13.19
2022-11-02T23:50:40.452Z,13.30
2022-11-02T23:53:29.824Z,13.42
2022-11-02T23:56:16.414Z,13.45
2022-11-02T23:58:45.017Z,13.50
